Quitman, Louisiana
Current Conditions -  °F | °C
As of 10:15 AM on Thursday 30 Oct 2014 (Local Time) from KRSN Reporting Station
Clear Clear  
Wind Chill: 61°   Ceiling: Unl
Heat Index: 61°   Visibility: 10mi
Dew Point: 50°   Wind: 3mph
Humidity: 67%   Direction: 130°SE
Pressure: 30.22"   Gusts: NA
Location:  32.35°N, 92.72°W
Report Text: KRSN 301515Z AUTO 13003KT 10SM CLR 16/10 A3022 RMK AO2 T01630102
Loading
Personal Weather Stations






























Interactive Weather Map
Tropical Storm Tracking
New forecast layout! Learn more

10-Day Weather Forecast

Advertisements
Track Severe Weather on mobile